Time;durP1;ratioP1;P1;durP2;ratioP2;P2;SDS_P1;SDS_P2;PMS_P1;PMS_P2;Temp;Humidity;BMP_temperature;BMP_pressure;BME280_temperature;BME280_humidity;BME280_pressure;Samples;Min_cycle;Max_cycle;Signal;HPM_P1;HPM_P2
2023/01/19 00:00:42;;;;;;;84.97;34.47;;;;;;;1.42;74.74;97079.13;5112300;28;20496;-69
2023/01/19 00:03:14;;;;;;;70.88;30.00;;;;;;;1.42;74.60;97096.16;5112587;28;20058;-72
2023/01/19 00:05:42;;;;;;;74.20;32.85;;;;;;;1.43;74.96;97086.16;5112744;28;20026;-73
2023/01/19 00:08:17;;;;;;;84.13;33.45;;;;;;;1.44;74.36;97082.38;5094121;28;20382;-71
2023/01/19 00:10:44;;;;;;;103.55;37.47;;;;;;;1.46;74.60;97085.63;5111303;28;20053;-70
2023/01/19 00:13:10;;;;;;;100.53;37.40;;;;;;;1.46;74.85;97085.63;5112815;28;20024;-71
2023/01/19 00:15:36;;;;;;;94.38;35.90;;;;;;;1.46;74.93;97082.91;5112801;28;20035;-71
2023/01/19 00:18:01;;;;;;;85.32;33.53;;;;;;;1.46;74.26;97082.91;5112783;28;20015;-71
2023/01/19 00:20:26;;;;;;;87.05;37.13;;;;;;;1.46;74.71;97096.41;5112836;28;20016;-69
2023/01/19 00:22:52;;;;;;;71.95;32.78;;;;;;;1.44;74.60;97091.28;5112399;28;20023;-70
2023/01/19 00:25:17;;;;;;;82.97;35.65;;;;;;;1.44;74.25;97090.47;5111702;28;20024;-70
2023/01/19 00:27:48;;;;;;;78.70;32.35;;;;;;;1.42;74.43;97088.06;5112822;28;20144;-70
2023/01/19 00:30:14;;;;;;;70.82;31.42;;;;;;;1.40;74.15;97079.41;5112645;28;20012;-70
2023/01/19 00:32:39;;;;;;;60.08;28.65;;;;;;;1.39;74.09;97088.59;5112258;28;20105;-70
2023/01/19 00:35:05;;;;;;;54.65;25.45;;;;;;;1.38;74.46;97083.44;5110324;28;20077;-70
2023/01/19 00:37:30;;;;;;;43.05;21.67;;;;;;;1.40;74.51;97084.00;5093640;28;20137;-70
2023/01/19 00:39:55;;;;;;;44.45;21.20;;;;;;;1.39;74.21;97083.19;5112085;28;20076;-69
2023/01/19 00:42:39;;;;;;;42.95;22.23;;;;;;;1.42;74.16;97092.63;5110943;28;20023;-70
2023/01/19 00:45:07;;;;;;;50.55;25.58;;;;;;;1.42;74.83;97089.94;5110377;28;20084;-70
2023/01/19 00:47:32;;;;;;;56.13;27.38;;;;;;;1.42;74.33;97079.97;5110562;28;20031;-70
2023/01/19 00:49:58;;;;;;;55.47;28.10;;;;;;;1.44;74.13;97088.56;5110379;28;20156;-70
2023/01/19 00:52:23;;;;;;;64.13;29.30;;;;;;;1.47;74.69;97092.63;5110743;28;20384;-69
2023/01/19 00:54:49;;;;;;;67.43;30.55;;;;;;;1.50;74.21;97094.81;5110734;28;20016;-70
2023/01/19 00:57:15;;;;;;;68.80;31.70;;;;;;;1.50;74.34;97092.09;5110533;28;20034;-70
2023/01/19 00:59:40;;;;;;;68.85;33.33;;;;;;;1.51;74.28;97087.50;5110523;28;20384;-70
2023/01/19 01:02:06;;;;;;;85.95;37.40;;;;;;;1.47;74.06;97081.84;5110460;28;20020;-70
2023/01/19 01:04:31;;;;;;;87.57;39.45;;;;;;;1.47;74.10;97081.84;5110912;28;20048;-70
2023/01/19 01:06:57;;;;;;;88.13;42.65;;;;;;;1.44;74.23;97082.38;5111531;28;20100;-70
2023/01/19 01:09:23;;;;;;;80.70;40.83;;;;;;;1.44;74.24;97082.38;5111086;28;20110;-70
2023/01/19 01:11:48;;;;;;;78.05;39.00;;;;;;;1.42;74.34;97079.13;5110579;28;20027;-70
2023/01/19 01:14:14;;;;;;;74.75;38.47;;;;;;;1.40;74.34;97071.31;5111931;28;20049;-70
2023/01/19 01:16:39;;;;;;;71.90;36.85;;;;;;;1.39;74.37;97068.84;5112032;28;20048;-70
2023/01/19 01:19:05;;;;;;;76.28;36.67;;;;;;;1.36;73.85;97069.41;5111772;28;20110;-70
2023/01/19 01:21:33;;;;;;;75.68;35.35;;;;;;;1.32;74.12;97069.94;5111674;28;20030;-70
2023/01/19 01:23:58;;;;;;;70.43;34.30;;;;;;;1.32;74.17;97064.53;5111484;28;20106;-71
2023/01/19 01:26:24;;;;;;;76.75;36.72;;;;;;;1.29;74.01;97067.78;5111899;28;20687;-70
2023/01/19 01:28:49;;;;;;;70.47;34.88;;;;;;;1.29;74.04;97070.47;5111773;28;20023;-71
2023/01/19 01:31:14;;;;;;;70.65;36.33;;;;;;;1.27;74.12;97074.53;5111754;28;20102;-70
2023/01/19 01:33:40;;;;;;;68.25;35.50;;;;;;;1.24;73.85;97067.78;5106157;27;20047;-71
2023/01/19 01:36:06;;;;;;;64.10;33.03;;;;;;;1.26;74.15;97075.63;5128965;27;20400;-70
2023/01/19 01:38:31;;;;;;;58.55;31.20;;;;;;;1.28;74.44;97074.25;5109283;28;20027;-70
2023/01/19 01:40:58;;;;;;;53.53;28.45;;;;;;;1.29;74.32;97070.47;5111251;28;20031;-70
2023/01/19 01:43:42;;;;;;;44.92;26.98;;;;;;;1.27;74.09;97080.75;5111411;28;20384;-70
2023/01/19 01:46:07;;;;;;;49.42;27.13;;;;;;;1.30;74.04;97087.50;5110714;28;20401;-70
2023/01/19 01:48:33;;;;;;;49.28;27.10;;;;;;;1.30;73.97;97088.31;5111376;28;20023;-71
2023/01/19 01:53:48;;;;;;;48.63;26.55;;;;;;;1.31;74.65;97106.13;5110130;28;20035;-70
2023/01/19 01:56:18;;;;;;;48.75;25.80;;;;;;;1.29;74.40;97102.09;5111307;28;20019;-70
2023/01/19 01:58:44;;;;;;;47.97;26.38;;;;;;;1.28;73.56;97108.56;5110907;28;20544;-70
2023/01/19 02:03:56;;;;;;;53.75;27.85;;;;;;;1.27;74.05;97096.16;5111001;28;20042;-71
2023/01/19 02:06:22;;;;;;;48.35;26.60;;;;;;;1.27;74.04;97101.56;5109595;28;20035;-71
2023/01/19 02:14:25;;;;;;;59.53;29.40;;;;;;;1.21;73.85;97103.44;5104436;28;20089;-71
2023/01/19 02:16:51;;;;;;;54.60;28.00;;;;;;;1.17;74.07;97111.25;5094841;28;20032;-71
2023/01/19 02:19:23;;;;;;;57.88;30.60;;;;;;;1.17;73.62;97122.06;5115556;28;20031;-70
2023/01/19 02:22:30;;;;;;;61.53;30.38;;;;;;;1.17;73.64;97121.25;5095253;28;20075;-70
2023/01/19 02:24:56;;;;;;;67.78;32.80;;;;;;;1.22;73.93;97118.56;5075603;28;20064;-71
2023/01/19 02:27:21;;;;;;;58.28;31.13;;;;;;;1.21;73.93;97121.53;5097591;28;20161;-71
2023/01/19 02:29:47;;;;;;;65.57;32.08;;;;;;;1.21;74.33;97125.06;5095742;28;20040;-70
2023/01/19 02:32:12;;;;;;;68.18;32.67;;;;;;;1.22;74.52;97112.34;5103024;28;20119;-70
2023/01/19 02:34:38;;;;;;;68.30;31.30;;;;;;;1.22;74.38;97112.34;5115368;28;20031;-70
2023/01/19 02:37:10;;;;;;;63.55;31.52;;;;;;;1.21;73.82;97108.84;5115634;28;20024;-70
2023/01/19 02:39:44;;;;;;;59.88;30.02;;;;;;;1.21;74.38;97116.94;5100548;28;20039;-70
2023/01/19 02:42:17;;;;;;;54.38;28.45;;;;;;;1.20;74.13;97115.31;5101923;28;20023;-70
2023/01/19 02:44:47;;;;;;;53.95;27.25;;;;;;;1.23;74.29;97124.78;5092481;28;20043;-71
2023/01/19 02:47:13;;;;;;;;;;;;;;;1.25;74.15;97123.41;5094908;28;20032;-70
2023/01/19 02:49:38;;;;;;;60.97;31.15;;;;;;;1.26;74.28;97118.84;5100835;28;19927;-70
2023/01/19 02:52:04;;;;;;;60.60;32.72;;;;;;;1.25;73.83;97115.31;5110527;28;20054;-70
2023/01/19 02:54:42;;;;;;;57.70;29.90;;;;;;;1.24;74.59;97123.69;5110222;28;20772;-71
2023/01/19 02:57:23;;;;;;;60.42;30.58;;;;;;;1.22;73.91;97129.38;5112152;28;20028;-70
2023/01/19 02:59:54;;;;;;;60.85;31.77;;;;;;;1.20;73.44;97126.13;5106372;28;20308;-70
2023/01/19 03:02:49;;;;;;;60.85;33.38;;;;;;;1.19;74.02;97128.00;5094962;28;20036;-70
2023/01/19 03:05:44;;;;;;;77.68;39.08;;;;;;;1.19;74.10;97121.81;5098254;28;20047;-70
2023/01/19 03:08:13;;;;;;;72.25;37.78;;;;;;;1.17;73.69;97119.38;5076950;28;20047;-71
2023/01/19 03:11:00;;;;;;;66.57;35.45;;;;;;;1.14;73.54;97122.59;5104376;28;20031;-73
2023/01/19 03:13:46;;;;;;;69.75;35.95;;;;;;;1.15;73.74;97118.03;5104182;28;20087;-73
2023/01/19 03:16:15;;;;;;;69.38;34.45;;;;;;;1.16;74.21;97125.03;5086545;28;20038;-73
2023/01/19 03:18:45;;;;;;;66.80;34.90;;;;;;;1.15;74.10;97126.91;5111811;28;20104;-72
2023/01/19 03:21:12;;;;;;;66.28;33.72;;;;;;;1.16;74.32;97136.63;5113148;28;20031;-72
2023/01/19 03:23:41;;;;;;;63.25;33.22;;;;;;;1.15;73.99;97131.53;5092568;28;20080;-73
2023/01/19 03:26:10;;;;;;;61.58;34.10;;;;;;;1.15;74.31;97135.03;5113160;28;20472;-73
2023/01/19 03:28:39;;;;;;;63.13;32.55;;;;;;;1.17;73.92;97134.78;5097290;28;20027;-72
2023/01/19 03:31:11;;;;;;;69.78;34.55;;;;;;;1.16;73.79;97141.25;5096440;28;20031;-73
2023/01/19 03:33:42;;;;;;;70.25;36.10;;;;;;;1.14;73.52;97140.69;5094875;28;20040;-72
2023/01/19 03:36:13;;;;;;;70.20;35.25;;;;;;;1.13;73.83;97147.19;5094658;28;20526;-73
2023/01/19 03:38:41;;;;;;;72.50;37.08;;;;;;;1.13;73.71;97155.28;5103789;28;20477;-72
2023/01/19 03:41:15;;;;;;;68.93;36.15;;;;;;;1.11;74.26;97154.72;5112227;28;20032;-73
2023/01/19 03:43:43;;;;;;;71.93;36.72;;;;;;;1.12;74.05;97150.97;5078033;28;20024;-73
2023/01/19 03:46:10;;;;;;;72.00;36.40;;;;;;;1.12;74.06;97151.75;5106615;28;20491;-73
2023/01/19 03:48:37;;;;;;;75.03;38.13;;;;;;;1.08;73.76;97145.25;5097656;28;20035;-72
2023/01/19 03:51:05;;;;;;;77.30;38.58;;;;;;;1.08;74.38;97156.06;5106041;28;20542;-72
2023/01/19 03:53:30;;;;;;;90.43;41.13;;;;;;;1.09;74.24;97154.97;5095395;28;20477;-73
2023/01/19 03:55:55;;;;;;;105.78;42.75;;;;;;;1.09;74.39;97156.88;5112754;28;20023;-73
2023/01/19 03:58:21;;;;;;;84.07;37.78;;;;;;;1.09;73.85;97165.00;5106431;28;20544;-73
2023/01/19 04:00:47;;;;;;;89.85;39.33;;;;;;;1.08;74.06;97174.97;5091803;28;20032;-73
2023/01/19 04:03:14;;;;;;;74.30;36.60;;;;;;;1.07;74.31;97167.94;5108351;28;20028;-73
2023/01/19 04:05:39;;;;;;;64.78;32.83;;;;;;;1.07;73.87;97165.25;5074287;28;20085;-72
2023/01/19 04:08:05;;;;;;;64.88;32.03;;;;;;;1.10;73.88;97169.31;5090703;28;20494;-72
2023/01/19 04:10:30;;;;;;;68.15;33.60;;;;;;;1.11;73.93;97179.84;5091777;28;20443;-73
2023/01/19 04:13:00;;;;;;;68.10;34.00;;;;;;;1.12;73.76;97177.97;5110464;28;20100;-72
2023/01/19 04:15:26;;;;;;;63.47;32.67;;;;;;;1.13;74.27;97166.88;5113394;28;20035;-73
2023/01/19 04:17:52;;;;;;;70.78;34.60;;;;;;;1.14;74.36;97162.31;5111170;28;20059;-72
2023/01/19 04:20:17;;;;;;;66.10;32.78;;;;;;;1.15;74.59;97158.53;5074736;28;20112;-73
2023/01/19 04:22:43;;;;;;;61.90;31.45;;;;;;;1.14;74.77;97173.91;5108580;28;20038;-73
2023/01/19 04:25:09;;;;;;;64.60;33.17;;;;;;;1.15;74.81;97164.72;5112813;28;20456;-72
2023/01/19 04:27:35;;;;;;;64.07;33.45;;;;;;;1.20;74.18;97174.75;5113140;28;20032;-72
2023/01/19 04:30:02;;;;;;;63.45;32.40;;;;;;;1.20;73.97;97174.75;5111271;28;20027;-73
2023/01/19 04:32:28;;;;;;;64.53;32.25;;;;;;;1.21;74.45;97176.38;5099419;28;20089;-73
2023/01/19 04:34:54;;;;;;;58.60;31.42;;;;;;;1.22;74.10;97187.97;5097517;28;20028;-72
2023/01/19 04:37:19;;;;;;;58.55;30.65;;;;;;;1.21;74.03;97187.16;5094403;28;20027;-72
2023/01/19 04:39:44;;;;;;;52.40;28.80;;;;;;;1.23;74.62;97203.09;5094957;28;20119;-72
2023/01/19 04:42:10;;;;;;;54.63;28.83;;;;;;;1.23;73.98;97211.19;5103195;28;20043;-73
2023/01/19 04:44:35;;;;;;;59.05;29.48;;;;;;;1.20;74.10;97215.25;5102399;28;20397;-73
2023/01/19 04:47:02;;;;;;;53.70;30.30;;;;;;;1.21;74.25;97218.75;5082100;28;20023;-73
2023/01/19 04:49:27;;;;;;;53.63;29.38;;;;;;;1.19;74.51;97211.72;5100740;27;20026;-72
2023/01/19 04:51:53;;;;;;;55.92;29.08;;;;;;;1.17;74.46;97211.19;5114970;27;20035;-73
2023/01/19 04:54:18;;;;;;;66.00;32.40;;;;;;;1.16;74.55;97204.16;5103804;28;20114;-73
2023/01/19 04:56:44;;;;;;;61.30;32.60;;;;;;;1.18;74.38;97206.59;5092553;28;20385;-73
2023/01/19 04:59:09;;;;;;;63.22;33.85;;;;;;;1.19;74.19;97211.72;5092482;28;20493;-73
2023/01/19 05:01:35;;;;;;;60.22;29.70;;;;;;;1.20;74.51;97217.97;5107266;28;20358;-73
2023/01/19 05:04:02;;;;;;;59.97;30.25;;;;;;;1.21;74.01;97225.00;5106984;28;20036;-73
2023/01/19 05:06:28;;;;;;;56.67;27.88;;;;;;;1.23;74.69;97217.41;5112320;28;20119;-72
2023/01/19 05:08:53;;;;;;;53.35;27.48;;;;;;;1.22;74.18;97220.38;5112172;28;20146;-72
2023/01/19 05:11:18;;;;;;;54.75;27.63;;;;;;;1.22;74.22;97214.97;5112309;28;20039;-73
2023/01/19 05:13:44;;;;;;;56.85;28.23;;;;;;;1.21;74.26;97216.88;5111192;28;20031;-73
2023/01/19 05:16:09;;;;;;;51.65;26.92;;;;;;;1.22;74.01;97214.97;5110037;28;20049;-72
2023/01/19 05:18:35;;;;;;;53.90;25.95;;;;;;;1.21;74.56;97208.78;5106297;28;20032;-73
2023/01/19 05:21:04;;;;;;;55.05;28.25;;;;;;;1.21;74.16;97203.38;5099402;28;20032;-72
2023/01/19 05:23:31;;;;;;;68.13;32.75;;;;;;;1.21;74.24;97205.25;5100241;28;20036;-73
2023/01/19 05:26:00;;;;;;;89.18;38.00;;;;;;;1.22;74.35;97198.78;5111736;28;20034;-73
2023/01/19 05:28:30;;;;;;;98.38;41.17;;;;;;;1.21;73.88;97199.84;5111464;28;20027;-73
2023/01/19 05:30:55;;;;;;;66.68;32.30;;;;;;;1.15;74.71;97197.13;5111808;28;20106;-73
2023/01/19 05:33:22;;;;;;;68.05;31.08;;;;;;;1.14;74.40;97189.31;5092480;28;20119;-73
2023/01/19 05:35:52;;;;;;;65.55;29.45;;;;;;;1.13;74.24;97193.09;5083572;27;20031;-73
2023/01/19 05:38:18;;;;;;;61.70;28.83;;;;;;;1.14;74.52;97187.41;5099000;28;20090;-73
2023/01/19 05:40:44;;;;;;;62.75;28.77;;;;;;;1.12;74.69;97192.25;5103842;28;20059;-72
2023/01/19 05:43:10;;;;;;;51.15;26.42;;;;;;;1.11;73.84;97196.03;5109790;28;20145;-73
2023/01/19 05:45:37;;;;;;;49.92;25.80;;;;;;;1.10;74.69;97191.72;5111932;28;20027;-72
2023/01/19 05:48:03;;;;;;;51.72;25.85;;;;;;;1.12;74.20;97196.88;5092216;28;20213;-73
2023/01/19 05:50:29;;;;;;;52.95;23.92;;;;;;;1.12;74.81;97192.25;5109365;28;20027;-73
2023/01/19 05:52:54;;;;;;;52.35;24.75;;;;;;;1.14;74.72;97195.50;5109217;28;20452;-73
2023/01/19 05:55:20;;;;;;;49.00;24.67;;;;;;;1.15;74.61;97199.84;5094968;28;20024;-72
2023/01/19 05:57:45;;;;;;;50.72;24.70;;;;;;;1.16;74.54;97196.06;5092079;28;20032;-73
2023/01/19 06:00:12;;;;;;;52.67;26.98;;;;;;;1.21;74.20;97207.94;5091010;28;20393;-73
2023/01/19 06:02:37;;;;;;;45.10;25.58;;;;;;;1.22;74.78;97205.00;5111545;28;20027;-73
2023/01/19 06:05:03;;;;;;;48.58;25.10;;;;;;;1.25;74.66;97195.53;5103087;28;20102;-72
2023/01/19 06:07:28;;;;;;;51.70;25.85;;;;;;;1.27;74.55;97196.09;5087830;28;20130;-73
2023/01/19 06:09:54;;;;;;;50.50;26.92;;;;;;;1.30;74.62;97200.97;5105798;28;20545;-73
2023/01/19 06:12:19;;;;;;;54.25;26.10;;;;;;;1.34;74.93;97207.47;5091347;28;20028;-72
2023/01/19 06:14:44;;;;;;;45.88;23.85;;;;;;;1.37;74.92;97204.22;5107591;28;20032;-73
2023/01/19 06:17:10;;;;;;;48.50;25.40;;;;;;;1.37;74.47;97212.31;5110517;28;20028;-73
2023/01/19 06:19:35;;;;;;;54.45;26.73;;;;;;;1.39;74.63;97209.34;5106317;28;20035;-73
2023/01/19 06:22:02;;;;;;;70.72;33.25;;;;;;;1.37;75.21;97225.00;5106341;28;20028;-74
2023/01/19 06:24:28;;;;;;;72.40;33.60;;;;;;;1.33;74.73;97227.44;5092605;28;20020;-74
2023/01/19 06:26:54;;;;;;;53.50;27.40;;;;;;;1.28;74.77;97244.44;5108892;28;20019;-73
2023/01/19 06:29:20;;;;;;;65.40;31.10;;;;;;;1.21;74.70;97267.38;5101216;28;20090;-73
2023/01/19 06:31:46;;;;;;;66.40;29.80;;;;;;;1.15;74.89;97274.66;5113634;28;20509;-74
2023/01/19 06:34:11;;;;;;;57.90;27.40;;;;;;;1.12;75.09;97270.56;5109267;28;20102;-73
2023/01/19 06:36:37;;;;;;;52.90;25.05;;;;;;;1.09;75.42;97271.09;5113895;28;20056;-72
2023/01/19 06:39:04;;;;;;;48.25;24.65;;;;;;;1.05;75.17;97270.00;5111883;28;21941;-72
2023/01/19 06:41:32;;;;;;;45.75;24.10;;;;;;;0.98;75.53;97278.34;5113419;28;20028;-73
2023/01/19 06:43:58;;;;;;;45.58;22.60;;;;;;;0.93;75.13;97282.94;5114070;28;20321;-73
2023/01/19 06:46:23;;;;;;;41.50;21.65;;;;;;;0.89;74.90;97278.06;5113516;28;20500;-72
2023/01/19 06:48:48;;;;;;;42.20;22.13;;;;;;;0.88;75.54;97284.53;5113171;28;20073;-72
2023/01/19 06:51:14;;;;;;;37.13;20.60;;;;;;;0.89;75.06;97285.31;5094707;28;20104;-72
2023/01/19 06:53:39;;;;;;;40.95;21.80;;;;;;;0.91;75.36;97291.28;5095145;28;20034;-73
2023/01/19 06:56:06;;;;;;;38.80;20.88;;;;;;;0.92;75.79;97289.41;5113287;28;20627;-73
2023/01/19 06:58:33;;;;;;;40.17;22.38;;;;;;;0.93;75.79;97299.13;5094790;28;20427;-72
2023/01/19 07:01:05;;;;;;;46.58;23.17;;;;;;;0.92;75.31;97308.28;5110330;28;20036;-74
2023/01/19 07:03:31;;;;;;;45.75;24.00;;;;;;;0.88;75.31;97314.22;5113534;28;20032;-72
2023/01/19 07:06:01;;;;;;;39.85;21.33;;;;;;;0.86;75.71;97327.16;5113335;28;20031;-72
2023/01/19 07:08:27;;;;;;;45.83;23.30;;;;;;;0.82;75.57;97326.06;5113399;28;20097;-73
2023/01/19 07:10:58;;;;;;;40.97;21.73;;;;;;;0.82;75.38;97322.53;5112777;28;20028;-73
2023/01/19 07:13:24;;;;;;;46.00;21.92;;;;;;;0.82;75.82;97328.75;5094099;28;20026;-71
2023/01/19 07:15:49;;;;;;;42.50;22.67;;;;;;;0.83;75.95;97333.06;5111780;28;20023;-73
2023/01/19 07:18:14;;;;;;;43.97;22.15;;;;;;;0.84;75.92;97340.09;5108760;28;20031;-72
2023/01/19 07:20:40;;;;;;;44.47;21.90;;;;;;;0.86;75.91;97345.22;5110169;28;20560;-73
2023/01/19 07:23:05;;;;;;;41.55;22.13;;;;;;;0.92;76.02;97351.50;5112617;28;20670;-73
2023/01/19 07:25:30;;;;;;;41.35;22.48;;;;;;;0.93;76.25;97361.22;5112833;28;20027;-73
2023/01/19 07:27:59;;;;;;;43.50;22.48;;;;;;;0.94;75.79;97360.94;5109013;28;20020;-73
2023/01/19 07:30:25;;;;;;;41.65;20.70;;;;;;;0.95;76.12;97365.28;5109670;27;20043;-72
2023/01/19 07:32:50;;;;;;;46.63;22.80;;;;;;;0.91;75.74;97366.84;5111447;28;20413;-74
2023/01/19 07:35:15;;;;;;;46.55;22.90;;;;;;;0.96;75.81;97366.09;5112528;28;20026;-73
2023/01/19 07:37:41;;;;;;;43.58;21.70;;;;;;;0.96;76.19;97364.19;5093964;28;20419;-73
2023/01/19 07:40:07;;;;;;;46.58;22.30;;;;;;;0.98;75.83;97372.06;5112014;28;20035;-73
2023/01/19 07:42:32;;;;;;;46.67;22.45;;;;;;;0.99;75.47;97373.69;5112396;28;20031;-73
2023/01/19 07:44:58;;;;;;;44.40;21.10;;;;;;;1.00;76.13;97359.09;5109809;28;20035;-73
2023/01/19 07:47:23;;;;;;;43.67;22.08;;;;;;;1.01;75.81;97348.03;5109634;28;20030;-73
2023/01/19 07:49:49;;;;;;;45.80;21.15;;;;;;;1.02;75.84;97349.66;5109611;28;20058;-73
2023/01/19 07:52:14;;;;;;;38.85;20.38;;;;;;;1.01;75.77;97353.44;5112396;28;20033;-73
2023/01/19 07:54:40;;;;;;;41.78;21.05;;;;;;;1.02;75.50;97356.94;5110147;28;20075;-73
2023/01/19 07:57:06;;;;;;;42.90;22.45;;;;;;;1.03;75.81;97355.84;5111115;28;20469;-74
2023/01/19 07:59:31;;;;;;;41.53;23.13;;;;;;;1.04;75.64;97355.63;5112937;28;20080;-73
2023/01/19 08:01:58;;;;;;;39.30;20.77;;;;;;;1.08;75.79;97377.50;5092581;28;20096;-72
2023/01/19 08:04:25;;;;;;;41.55;22.15;;;;;;;1.09;76.25;97368.31;5111162;28;20032;-71
2023/01/19 08:06:50;;;;;;;44.13;23.35;;;;;;;1.13;76.12;97363.22;5105505;28;20043;-73
2023/01/19 08:09:16;;;;;;;39.10;20.88;;;;;;;1.14;75.91;97375.66;5111984;28;20075;-72
2023/01/19 08:11:42;;;;;;;41.13;20.65;;;;;;;1.17;76.29;97378.63;5110692;28;20028;-73
2023/01/19 08:14:08;;;;;;;43.15;22.02;;;;;;;1.22;75.86;97372.47;5109009;28;20132;-72
2023/01/19 08:16:33;;;;;;;37.20;18.67;;;;;;;1.25;75.80;97369.22;5108067;28;20473;-72
2023/01/19 08:18:59;;;;;;;32.92;17.65;;;;;;;1.27;76.26;97369.75;5109127;28;20114;-72
2023/01/19 08:21:24;;;;;;;34.88;18.73;;;;;;;1.28;76.05;97373.28;5111431;27;20107;-71
2023/01/19 08:23:53;;;;;;;36.17;19.05;;;;;;;1.30;75.78;97376.53;5111457;28;20034;-71
2023/01/19 08:26:30;;;;;;;34.42;17.05;;;;;;;1.29;75.71;97366.81;5113447;28;20024;-74
2023/01/19 08:28:59;;;;;;;36.50;17.77;;;;;;;1.27;75.82;97366.25;5110476;28;20027;-73
2023/01/19 08:31:25;;;;;;;29.77;16.05;;;;;;;1.29;75.52;97366.81;5111819;28;20020;-73
2023/01/19 08:33:50;;;;;;;30.25;16.73;;;;;;;1.24;75.98;97375.69;5110431;28;20118;-72
2023/01/19 08:36:15;;;;;;;38.72;19.65;;;;;;;1.22;75.25;97377.88;5111272;28;20032;-72
2023/01/19 08:38:43;;;;;;;37.42;17.75;;;;;;;1.21;75.53;97380.81;5111061;28;20031;-71
2023/01/19 08:41:09;;;;;;;35.50;17.42;;;;;;;1.18;75.65;97391.06;5091691;28;20128;-71
2023/01/19 08:43:36;;;;;;;33.50;18.42;;;;;;;1.20;76.07;97388.13;5111336;28;20423;-72
2023/01/19 08:46:03;;;;;;;29.13;16.50;;;;;;;1.21;75.89;97392.44;5091996;28;20057;-71
2023/01/19 08:48:28;;;;;;;32.00;17.63;;;;;;;1.17;75.50;97400.25;5111728;27;20028;-72
2023/01/19 08:50:54;;;;;;;29.08;16.48;;;;;;;1.15;75.66;97398.88;5110850;27;20089;-72
2023/01/19 08:53:22;;;;;;;31.58;15.35;;;;;;;1.12;76.16;97411.00;5109447;28;20130;-72
2023/01/19 08:55:48;;;;;;;27.17;15.05;;;;;;;1.09;75.13;97414.22;5108879;27;20032;-72
2023/01/19 08:58:14;;;;;;;23.92;14.48;;;;;;;1.06;75.87;97422.03;5108869;28;20030;-70
2023/01/19 09:00:39;;;;;;;25.73;14.88;;;;;;;1.01;75.90;97417.44;5107535;28;20035;-70
2023/01/19 09:03:06;;;;;;;25.42;14.38;;;;;;;0.99;75.40;97412.28;5108328;28;20488;-72
2023/01/19 09:05:36;;;;;;;25.20;14.07;;;;;;;1.00;75.89;97416.59;5088468;28;20051;-69
2023/01/19 09:08:07;;;;;;;25.35;14.98;;;;;;;0.95;75.81;97424.66;5089682;28;20567;-70
2023/01/19 09:10:36;;;;;;;26.88;13.90;;;;;;;0.94;75.30;97425.75;5071672;28;20123;-70
2023/01/19 09:13:03;;;;;;;24.75;13.80;;;;;;;0.89;75.42;97426.53;5089795;28;20111;-70
2023/01/19 09:15:31;;;;;;;26.08;13.88;;;;;;;0.87;75.75;97430.53;5090388;28;20055;-72
2023/01/19 09:17:57;;;;;;;22.50;13.35;;;;;;;0.85;75.89;97438.91;5083245;28;20040;-72
2023/01/19 09:20:22;;;;;;;26.33;14.32;;;;;;;0.85;76.04;97440.78;5065770;28;20029;-71
2023/01/19 09:22:47;;;;;;;25.00;13.75;;;;;;;0.84;75.89;97433.75;5065405;28;20085;-71
2023/01/19 09:25:13;;;;;;;37.08;19.83;;;;;;;0.84;75.60;97425.66;5064849;28;20475;-70
2023/01/19 09:27:38;;;;;;;24.10;14.20;;;;;;;0.85;75.34;97438.09;5059941;28;20035;-72
2023/01/19 09:30:05;;;;;;;25.15;14.60;;;;;;;0.83;75.33;97446.44;5062400;28;20066;-70
2023/01/19 09:32:31;;;;;;;21.60;13.10;;;;;;;0.85;75.81;97428.13;5059666;28;20040;-71
2023/01/19 09:34:57;;;;;;;23.67;14.02;;;;;;;0.87;75.97;97428.66;5072909;28;20378;-70
2023/01/19 09:37:23;;;;;;;27.70;15.00;;;;;;;0.85;75.54;97422.72;5085649;28;20056;-70
2023/01/19 09:39:48;;;;;;;24.58;15.38;;;;;;;0.88;75.70;97422.19;5079884;28;20072;-70
2023/01/19 09:42:20;;;;;;;22.92;14.23;;;;;;;0.89;75.36;97412.19;5071872;28;20036;-70
2023/01/19 09:44:49;;;;;;;29.95;17.17;;;;;;;0.93;75.46;97410.59;5069694;28;20024;-70
2023/01/19 09:47:20;;;;;;;25.35;14.38;;;;;;;0.98;75.96;97409.84;5070794;28;20016;-70
2023/01/19 09:49:51;;;;;;;24.58;13.60;;;;;;;1.02;75.51;97414.47;5070350;28;20052;-71
2023/01/19 09:52:17;;;;;;;21.17;12.85;;;;;;;1.03;75.72;97407.16;5052097;28;20024;-70
2023/01/19 09:54:54;;;;;;;23.02;13.18;;;;;;;1.02;75.55;97402.84;5067302;28;20016;-70
2023/01/19 09:57:21;;;;;;;20.65;11.82;;;;;;;1.04;75.41;97414.19;5073699;28;20016;-69
2023/01/19 09:59:49;;;;;;;20.60;11.32;;;;;;;1.02;75.46;97419.84;5090228;28;20024;-69
2023/01/19 10:02:32;;;;;;;22.25;11.43;;;;;;;1.02;75.57;97414.47;5091015;28;20055;-69
2023/01/19 10:05:04;;;;;;;20.20;11.23;;;;;;;1.03;75.19;97401.75;5069671;28;20414;-70
2023/01/19 10:07:53;;;;;;;18.70;12.00;;;;;;;1.01;75.35;97414.72;5069634;28;20178;-69
2023/01/19 10:10:20;;;;;;;18.92;12.10;;;;;;;1.06;75.70;97409.34;5064466;28;20032;-69
2023/01/19 10:12:58;;;;;;;18.02;11.38;;;;;;;1.05;75.56;97399.63;5052900;28;20028;-70
2023/01/19 10:15:26;;;;;;;22.45;12.90;;;;;;;1.06;75.76;97395.03;5052499;28;20021;-69
2023/01/19 10:18:07;;;;;;;21.00;12.55;;;;;;;1.08;75.03;97395.59;5070151;28;20025;-70
2023/01/19 10:20:36;;;;;;;;;;;;;;;1.09;75.47;97391.81;5053665;28;20406;-70
2023/01/19 10:23:13;;;;;;;22.60;13.55;;;;;;;1.09;75.72;97397.22;5070431;28;20297;-69
2023/01/19 10:25:39;;;;;;;23.55;12.85;;;;;;;1.05;75.66;97396.91;5068885;28;20035;-69
2023/01/19 10:28:05;;;;;;;22.52;14.40;;;;;;;1.04;75.72;97398.81;5071032;28;20052;-71
2023/01/19 10:30:30;;;;;;;22.42;13.52;;;;;;;1.05;75.62;97388.81;5070416;28;20060;-69
2023/01/19 10:32:56;;;;;;;27.65;16.50;;;;;;;1.05;75.89;97394.22;5070462;28;20028;-69
2023/01/19 10:35:24;;;;;;;50.63;28.13;;;;;;;1.07;74.78;97386.66;5070594;28;20474;-69
2023/01/19 10:37:52;;;;;;;27.17;16.63;;;;;;;1.08;75.80;97388.28;5052297;28;20528;-69
2023/01/19 10:40:49;;;;;;;25.30;14.15;;;;;;;1.01;75.20;97387.72;5069894;28;20032;-69
2023/01/19 10:43:33;;;;;;;38.55;22.45;;;;;;;0.97;74.91;97384.72;5069205;28;20021;-70
2023/01/19 10:46:06;;;;;;;90.43;44.53;;;;;;;0.99;75.23;97377.19;5070427;28;20386;-70
2023/01/19 10:48:40;;;;;;;70.25;31.38;;;;;;;1.01;75.50;97377.72;5070451;28;20033;-69
2023/01/19 10:51:08;;;;;;;128.10;46.00;;;;;;;1.01;75.16;97382.34;5070330;28;20533;-70
2023/01/19 10:53:33;;;;;;;136.40;51.20;;;;;;;1.02;75.06;97384.75;5070534;28;20028;-69
2023/01/19 10:56:16;;;;;;;86.38;29.75;;;;;;;1.03;74.91;97385.56;5070424;28;20059;-70
2023/01/19 10:58:42;;;;;;;44.80;20.17;;;;;;;1.03;75.82;97380.16;5070318;28;20033;-70
2023/01/19 11:01:15;;;;;;;38.70;19.00;;;;;;;1.03;74.97;97381.00;5070393;28;20081;-70
2023/01/19 11:03:40;;;;;;;29.50;15.45;;;;;;;1.06;75.49;97374.25;5070242;28;20028;-70
2023/01/19 11:06:19;;;;;;;32.35;16.48;;;;;;;1.04;75.56;97377.22;5070344;28;20036;-70
2023/01/19 11:08:47;;;;;;;30.42;17.55;;;;;;;1.08;75.07;97380.19;5070333;28;20121;-70
2023/01/19 11:11:12;;;;;;;24.67;14.27;;;;;;;1.11;75.39;97381.56;5070545;28;20478;-69
2023/01/19 11:13:40;;;;;;;23.50;12.15;;;;;;;1.12;75.08;97367.00;5052380;28;20021;-70
2023/01/19 11:16:23;;;;;;;27.48;15.45;;;;;;;1.12;74.95;97364.28;5070184;28;20097;-70
2023/01/19 11:18:51;;;;;;;25.63;15.05;;;;;;;1.16;74.97;97355.41;5072661;28;20539;-70
2023/01/19 11:21:23;;;;;;;20.55;12.90;;;;;;;1.22;75.22;97368.94;5073913;28;20036;-69
2023/01/19 11:23:55;;;;;;;22.08;12.07;;;;;;;1.25;75.70;97365.72;5073741;28;20031;-70
2023/01/19 11:26:32;;;;;;;21.40;13.52;;;;;;;1.31;75.39;97365.47;5055617;28;20386;-70
2023/01/19 11:29:02;;;;;;;19.00;12.18;;;;;;;1.41;75.88;97358.47;5073647;28;20025;-70
2023/01/19 11:31:27;;;;;;;23.25;13.05;;;;;;;1.44;75.82;97374.16;5072228;28;20025;-70
2023/01/19 11:33:55;;;;;;;18.95;12.05;;;;;;;1.47;75.08;97370.94;5073441;28;20095;-70
2023/01/19 11:36:23;;;;;;;21.88;12.77;;;;;;;1.48;75.45;97372.56;5055543;28;20047;-70
2023/01/19 11:38:52;;;;;;;39.20;18.25;;;;;;;1.49;75.04;97371.50;5073371;28;20054;-69
2023/01/19 11:41:18;;;;;;;38.65;18.60;;;;;;;1.52;74.83;97364.75;5073028;28;20039;-69